Time;durP1;ratioP1;P1;durP2;ratioP2;P2;SDS_P1;SDS_P2;PMS_P1;PMS_P2;Temp;Humidity;BMP_temperature;BMP_pressure;BME280_temperature;BME280_humidity;BME280_pressure;Samples;Min_cycle;Max_cycle;Signal;HPM_P1;HPM_P2
2023/08/31 00:00:45;;;;;;;3.88;1.00;;;14.00;74.30;;;;;;5087983;28;20119;-75
2023/08/31 00:03:12;;;;;;;2.78;0.68;;;14.00;74.40;;;;;;5070652;28;20187;-76
2023/08/31 00:05:41;;;;;;;3.38;0.85;;;14.00;74.50;;;;;;5062671;28;20069;-76
2023/08/31 00:08:07;;;;;;;4.15;1.00;;;14.00;74.70;;;;;;5083999;28;20059;-76
2023/08/31 00:10:35;;;;;;;4.82;1.30;;;14.00;74.80;;;;;;5067913;28;20054;-76
2023/08/31 00:13:01;;;;;;;2.75;0.90;;;14.10;75.00;;;;;;5077396;28;20074;-73
2023/08/31 00:15:28;;;;;;;1.70;0.60;;;14.10;75.00;;;;;;5061841;28;20193;-74
2023/08/31 00:17:54;;;;;;;2.05;0.70;;;14.10;75.00;;;;;;5087233;28;20044;-76
2023/08/31 00:20:21;;;;;;;3.65;0.93;;;14.10;75.00;;;;;;5074193;28;20488;-75
2023/08/31 00:22:48;;;;;;;3.03;0.82;;;14.10;75.00;;;;;;5073789;28;20044;-75
2023/08/31 00:25:13;;;;;;;1.17;0.50;;;14.10;74.90;;;;;;5069939;28;20159;-75
2023/08/31 00:27:40;;;;;;;2.22;0.90;;;14.10;74.80;;;;;;5085315;28;20127;-76
2023/08/31 00:30:11;;;;;;;6.43;0.88;;;14.10;75.00;;;;;;5054512;28;20040;-76
2023/08/31 00:32:39;;;;;;;1.75;0.45;;;14.10;74.50;;;;;;5078677;28;20040;-75
2023/08/31 00:35:05;;;;;;;1.13;0.50;;;14.10;74.30;;;;;;5071061;28;20483;-76
2023/08/31 00:37:31;;;;;;;2.72;1.05;;;14.10;74.20;;;;;;5075012;28;20119;-76
2023/08/31 00:39:58;;;;;;;5.50;0.73;;;14.10;74.00;;;;;;5077055;28;20052;-74
2023/08/31 00:42:25;;;;;;;0.43;0.20;;;14.10;73.90;;;;;;5069837;28;20561;-75
2023/08/31 00:44:51;;;;;;;0.80;0.40;;;14.10;73.90;;;;;;5063165;28;20090;-75
2023/08/31 00:47:19;;;;;;;0.77;0.30;;;14.10;73.60;;;;;;5059297;28;20430;-75
2023/08/31 00:49:44;;;;;;;1.48;0.70;;;14.10;73.50;;;;;;5072866;28;20511;-75
2023/08/31 00:52:10;;;;;;;2.50;0.55;;;14.10;73.50;;;;;;5072894;28;20127;-75
2023/08/31 00:54:36;;;;;;;1.77;0.30;;;14.10;73.40;;;;;;5086715;28;20105;-75
2023/08/31 00:57:03;;;;;;;2.30;0.45;;;14.10;73.50;;;;;;5078099;28;20068;-75
2023/08/31 00:59:29;;;;;;;0.65;0.30;;;14.10;73.60;;;;;;5070061;28;20032;-75
2023/08/31 01:02:06;;;;;;;1.15;0.45;;;14.10;73.60;;;;;;5081276;28;20052;-76
2023/08/31 01:05:03;;;;;;;1.40;0.40;;;14.10;73.60;;;;;;5084733;28;20043;-75
2023/08/31 01:07:47;;;;;;;2.05;0.65;;;14.10;73.50;;;;;;5083554;28;20111;-75
2023/08/31 01:10:30;;;;;;;2.20;0.90;;;14.00;73.50;;;;;;5079980;28;20376;-75
2023/08/31 01:13:11;;;;;;;0.45;0.30;;;14.00;73.60;;;;;;5077269;28;20551;-75
2023/08/31 01:15:39;;;;;;;1.77;0.50;;;14.00;73.70;;;;;;5072453;28;20044;-75
2023/08/31 01:18:06;;;;;;;1.17;0.32;;;14.00;73.80;;;;;;5079217;28;20394;-75
2023/08/31 01:20:47;;;;;;;1.38;0.40;;;14.00;73.90;;;;;;5074508;28;20040;-75
2023/08/31 01:23:19;;;;;;;2.58;0.50;;;14.00;73.90;;;;;;5085195;28;20541;-75
2023/08/31 01:25:48;;;;;;;1.20;0.40;;;14.00;74.00;;;;;;5079680;28;20040;-75
2023/08/31 01:28:13;;;;;;;1.70;0.65;;;13.90;74.10;;;;;;5066930;28;20032;-75
2023/08/31 01:30:40;;;;;;;1.15;0.50;;;13.90;74.20;;;;;;5085788;28;20051;-76
2023/08/31 01:33:06;;;;;;;2.13;0.60;;;13.90;74.40;;;;;;5081481;28;20094;-76
2023/08/31 01:35:41;;;;;;;1.38;0.60;;;13.90;74.50;;;;;;5078117;28;20045;-75
2023/08/31 01:38:08;;;;;;;1.13;0.40;;;13.90;74.60;;;;;;5085855;28;20101;-75
2023/08/31 01:40:57;;;;;;;3.20;1.00;;;13.90;74.80;;;;;;5056651;28;20048;-75
2023/08/31 01:43:23;;;;;;;4.43;1.05;;;13.90;74.90;;;;;;5064629;28;20101;-75
2023/08/31 01:45:49;;;;;;;2.88;1.08;;;13.80;75.00;;;;;;5066942;28;20078;-75
2023/08/31 01:48:15;;;;;;;3.78;1.83;;;13.80;75.20;;;;;;5098790;28;20028;-75
2023/08/31 01:50:41;;;;;;;2.05;0.90;;;13.70;75.30;;;;;;5085709;28;20043;-75
2023/08/31 01:53:06;;;;;;;2.63;0.88;;;13.70;75.40;;;;;;5064221;28;20073;-75
2023/08/31 01:55:32;;;;;;;1.95;0.75;;;13.70;75.60;;;;;;5092107;28;20112;-75
2023/08/31 01:57:58;;;;;;;2.17;0.90;;;13.60;75.70;;;;;;5097366;28;20377;-75
2023/08/31 02:00:25;;;;;;;2.17;0.77;;;13.70;75.80;;;;;;5067346;28;20037;-75
2023/08/31 02:02:51;;;;;;;2.50;1.00;;;13.60;75.90;;;;;;5073603;28;20387;-75
2023/08/31 02:05:17;;;;;;;3.15;1.00;;;13.60;75.90;;;;;;5082916;28;20024;-75
2023/08/31 02:07:42;;;;;;;2.97;1.30;;;13.60;75.70;;;;;;5082869;28;20052;-75
2023/08/31 02:10:08;;;;;;;2.63;0.88;;;13.60;75.80;;;;;;5096042;28;20105;-75
2023/08/31 02:12:36;;;;;;;2.92;0.70;;;13.60;75.70;;;;;;5086865;28;20036;-75
2023/08/31 02:15:04;;;;;;;2.65;0.75;;;13.60;75.70;;;;;;5087713;28;20036;-75
2023/08/31 02:17:29;;;;;;;1.77;0.80;;;13.60;75.70;;;;;;5074508;28;20039;-76
2023/08/31 02:19:55;;;;;;;1.73;0.65;;;13.60;75.70;;;;;;5080346;28;20032;-75
2023/08/31 02:22:21;;;;;;;2.40;0.60;;;13.50;75.60;;;;;;5052641;28;20047;-75
2023/08/31 02:24:47;;;;;;;3.33;0.70;;;13.50;75.60;;;;;;5092348;28;20036;-75
2023/08/31 02:27:12;;;;;;;1.25;0.60;;;13.50;75.60;;;;;;5091397;28;20031;-75
2023/08/31 02:29:38;;;;;;;2.42;0.60;;;13.50;75.60;;;;;;5058673;28;20060;-75
2023/08/31 02:32:05;;;;;;;1.55;0.60;;;13.50;75.50;;;;;;5077595;28;20067;-75
2023/08/31 02:34:30;;;;;;;1.40;0.50;;;13.50;75.60;;;;;;5087978;28;20037;-75
2023/08/31 02:36:56;;;;;;;3.13;0.73;;;13.50;75.60;;;;;;5089795;28;20040;-75
2023/08/31 02:39:22;;;;;;;2.75;0.82;;;13.50;75.60;;;;;;5083790;28;20599;-75
2023/08/31 02:41:47;;;;;;;2.03;0.75;;;13.50;75.70;;;;;;5088714;28;20044;-75
2023/08/31 02:44:13;;;;;;;2.15;0.60;;;13.40;75.60;;;;;;5059886;28;20419;-75
2023/08/31 02:46:39;;;;;;;1.95;0.60;;;13.40;75.70;;;;;;5079334;28;20047;-75
2023/08/31 02:49:05;;;;;;;1.88;0.70;;;13.40;75.80;;;;;;5083453;28;20036;-75
2023/08/31 02:51:30;;;;;;;2.65;0.73;;;13.40;76.30;;;;;;5084168;28;20556;-74
2023/08/31 02:53:56;;;;;;;1.50;0.68;;;13.40;75.90;;;;;;5077053;28;20070;-75
2023/08/31 02:56:22;;;;;;;1.52;0.93;;;13.40;75.90;;;;;;5089533;28;20067;-75
2023/08/31 02:58:47;;;;;;;1.90;0.77;;;13.30;75.90;;;;;;5079278;28;20036;-75
2023/08/31 03:01:14;;;;;;;2.72;1.00;;;13.30;76.00;;;;;;5057193;28;20055;-76
2023/08/31 03:03:41;;;;;;;2.63;1.10;;;13.30;76.00;;;;;;5080815;28;20063;-75
2023/08/31 03:06:08;;;;;;;2.20;1.45;;;13.30;76.10;;;;;;5086407;28;20032;-75
2023/08/31 03:08:35;;;;;;;4.13;1.40;;;13.30;76.20;;;;;;5080781;28;20036;-75
2023/08/31 03:11:02;;;;;;;4.22;1.27;;;13.30;76.30;;;;;;5080558;28;20032;-75
2023/08/31 03:13:28;;;;;;;2.58;1.52;;;13.30;76.40;;;;;;5095871;28;20043;-76
2023/08/31 03:15:53;;;;;;;4.65;2.72;;;13.30;76.50;;;;;;5084847;28;20087;-75
2023/08/31 03:18:19;;;;;;;2.72;1.67;;;13.20;76.60;;;;;;5089828;28;20089;-75
2023/08/31 03:20:45;;;;;;;3.22;1.90;;;13.20;76.70;;;;;;5079006;28;20036;-76
2023/08/31 03:23:11;;;;;;;4.15;2.25;;;13.20;76.80;;;;;;5076642;28;20141;-75
2023/08/31 03:25:37;;;;;;;3.70;2.22;;;13.20;76.90;;;;;;5083054;28;20036;-76
2023/08/31 03:28:03;;;;;;;3.08;2.00;;;13.20;77.00;;;;;;5075428;28;20368;-74
2023/08/31 03:30:29;;;;;;;3.45;2.00;;;13.20;77.10;;;;;;5060025;28;20132;-75
2023/08/31 03:32:54;;;;;;;4.00;3.60;;;13.20;77.20;;;;;;5094687;28;20213;-75
2023/08/31 03:35:22;;;;;;;5.80;3.90;;;13.20;77.30;;;;;;5082660;28;20488;-75
2023/08/31 03:37:48;;;;;;;4.78;2.90;;;13.20;77.50;;;;;;5089637;28;20067;-75
2023/08/31 03:40:14;;;;;;;6.05;3.28;;;13.20;77.60;;;;;;5084605;28;20803;-75
2023/08/31 03:42:39;;;;;;;4.97;3.33;;;13.20;77.60;;;;;;5067567;28;20050;-75
2023/08/31 03:45:05;;;;;;;5.65;3.20;;;13.20;77.70;;;;;;5083743;28;20396;-75
2023/08/31 03:47:31;;;;;;;5.25;4.75;;;13.20;77.70;;;;;;5091223;28;20025;-75
2023/08/31 03:49:57;;;;;;;4.70;2.90;;;13.20;77.70;;;;;;5082923;28;20040;-75
2023/08/31 03:52:23;;;;;;;3.85;3.45;;;13.20;77.80;;;;;;5056715;28;20047;-76
2023/08/31 03:54:49;;;;;;;5.45;4.57;;;13.20;77.80;;;;;;5082417;28;20047;-75
2023/08/31 03:57:15;;;;;;;4.25;2.85;;;13.20;77.80;;;;;;5077280;28;20123;-75
2023/08/31 03:59:41;;;;;;;6.35;4.43;;;13.20;77.90;;;;;;5076042;28;20123;-75
2023/08/31 04:02:06;;;;;;;4.85;3.53;;;13.30;77.90;;;;;;5076380;28;20438;-75
2023/08/31 04:04:33;;;;;;;6.00;4.90;;;13.30;77.90;;;;;;5076109;28;20036;-75
2023/08/31 04:06:59;;;;;;;5.70;4.35;;;13.30;78.00;;;;;;5083647;28;20484;-75
2023/08/31 04:09:25;;;;;;;4.85;4.00;;;13.30;78.00;;;;;;5076886;28;20035;-75
2023/08/31 04:11:51;;;;;;;5.82;3.65;;;13.30;78.10;;;;;;5063969;28;20511;-75
2023/08/31 04:14:18;;;;;;;6.30;4.28;;;13.30;78.10;;;;;;5083938;28;20082;-75
2023/08/31 04:16:45;;;;;;;5.60;3.67;;;13.30;78.20;;;;;;5080702;28;20083;-76
2023/08/31 04:19:10;;;;;;;5.35;3.53;;;13.30;78.30;;;;;;5074007;28;20037;-76
2023/08/31 04:21:37;;;;;;;4.95;3.63;;;13.30;78.40;;;;;;5081914;28;20166;-75
2023/08/31 04:24:04;;;;;;;4.68;3.58;;;13.40;78.50;;;;;;5074629;28;20073;-76
2023/08/31 04:26:29;;;;;;;4.97;3.78;;;13.40;78.60;;;;;;5059248;28;20444;-76
2023/08/31 04:28:56;;;;;;;5.93;3.65;;;13.40;78.60;;;;;;5089452;28;20036;-76
2023/08/31 04:31:22;;;;;;;7.18;3.63;;;13.40;78.70;;;;;;5087347;28;20111;-75
2023/08/31 04:33:48;;;;;;;4.15;2.90;;;13.40;78.70;;;;;;5066012;28;20571;-75
2023/08/31 04:36:14;;;;;;;3.78;2.83;;;13.40;78.80;;;;;;5089748;28;20044;-75
2023/08/31 04:38:39;;;;;;;5.00;3.20;;;13.40;78.70;;;;;;5054019;28;20399;-75
2023/08/31 04:41:05;;;;;;;4.18;2.83;;;13.40;78.70;;;;;;5075723;28;20059;-75
2023/08/31 04:43:31;;;;;;;6.90;3.20;;;13.40;78.70;;;;;;5068115;28;20079;-75
2023/08/31 04:45:57;;;;;;;7.00;2.90;;;13.50;78.70;;;;;;5067291;28;20113;-74
2023/08/31 04:48:23;;;;;;;5.75;2.45;;;13.50;78.70;;;;;;5072986;28;20454;-75
2023/08/31 04:50:48;;;;;;;5.82;2.72;;;13.50;78.70;;;;;;5077429;28;20455;-74
2023/08/31 04:53:14;;;;;;;4.90;2.92;;;13.50;78.70;;;;;;5086686;28;20348;-75
2023/08/31 04:55:40;;;;;;;4.43;2.20;;;13.50;78.60;;;;;;5077280;28;20490;-75
2023/08/31 04:58:06;;;;;;;4.28;1.95;;;13.50;78.60;;;;;;5073350;28;20044;-75
2023/08/31 05:00:31;;;;;;;5.57;2.40;;;13.50;78.50;;;;;;5055263;28;20040;-74
2023/08/31 05:02:57;;;;;;;5.15;2.28;;;13.50;78.50;;;;;;5086641;28;20036;-75
2023/08/31 05:05:23;;;;;;;8.18;2.88;;;13.50;78.50;;;;;;5085066;28;20029;-75
2023/08/31 05:07:49;;;;;;;5.03;2.03;;;13.50;78.40;;;;;;5067064;28;20032;-75
2023/08/31 05:10:15;;;;;;;3.35;1.92;;;13.60;78.50;;;;;;5071778;28;20448;-75
2023/08/31 05:12:40;;;;;;;3.45;1.83;;;13.60;78.40;;;;;;5073713;28;20491;-75
2023/08/31 05:15:06;;;;;;;4.05;1.92;;;13.60;78.40;;;;;;5071376;28;20050;-74
2023/08/31 05:17:32;;;;;;;5.93;1.80;;;13.60;78.40;;;;;;5068519;28;20036;-75
2023/08/31 05:19:58;;;;;;;3.80;1.70;;;13.60;78.40;;;;;;5067871;28;20036;-75
2023/08/31 05:22:24;;;;;;;3.05;1.90;;;13.60;78.40;;;;;;5077854;28;20086;-75
2023/08/31 05:24:49;;;;;;;4.55;1.48;;;13.60;78.30;;;;;;5088523;28;20057;-75
2023/08/31 05:27:15;;;;;;;3.53;1.70;;;13.60;78.40;;;;;;5076939;28;20035;-75
2023/08/31 05:29:41;;;;;;;6.55;2.15;;;13.60;78.40;;;;;;5075727;28;20040;-75
2023/08/31 05:32:06;;;;;;;6.03;1.60;;;13.60;78.50;;;;;;5082240;28;20059;-74
2023/08/31 05:34:37;;;;;;;4.00;1.48;;;13.70;78.60;;;;;;5092967;28;20040;-75
2023/08/31 05:37:04;;;;;;;3.33;1.52;;;13.60;78.60;;;;;;5077358;28;20043;-75
2023/08/31 05:39:30;;;;;;;3.30;1.52;;;13.70;78.70;;;;;;5091902;28;20071;-75
2023/08/31 05:41:56;;;;;;;6.25;1.50;;;13.70;78.80;;;;;;5083639;28;20098;-75
2023/08/31 05:44:23;;;;;;;5.03;1.73;;;13.70;78.90;;;;;;5095108;28;20047;-75
2023/08/31 05:46:48;;;;;;;3.90;1.70;;;13.70;79.00;;;;;;5078404;28;20387;-75
2023/08/31 05:49:14;;;;;;;4.95;1.95;;;13.70;79.10;;;;;;5078244;28;20040;-75
2023/08/31 05:51:40;;;;;;;5.25;1.83;;;13.70;79.30;;;;;;5084710;28;20402;-75
2023/08/31 05:54:10;;;;;;;5.45;2.08;;;13.70;79.40;;;;;;5079230;28;20044;-75
2023/08/31 05:56:36;;;;;;;3.15;1.60;;;13.80;79.60;;;;;;5086099;28;20070;-75
2023/08/31 05:59:02;;;;;;;3.17;1.55;;;13.80;79.70;;;;;;5058466;28;20128;-76
2023/08/31 06:01:28;;;;;;;4.15;1.77;;;13.90;79.80;;;;;;5086535;28;20072;-75
2023/08/31 06:03:53;;;;;;;4.25;1.98;;;13.90;79.80;;;;;;5096596;28;20040;-76
2023/08/31 06:06:19;;;;;;;7.78;2.00;;;13.90;79.80;;;;;;5115021;28;20035;-76
2023/08/31 06:08:45;;;;;;;3.85;1.55;;;14.00;80.50;;;;;;5115092;28;20520;-76
2023/08/31 06:11:10;;;;;;;4.32;1.58;;;14.10;81.40;;;;;;5104576;28;20024;-76
2023/08/31 06:13:37;;;;;;;4.85;1.88;;;14.40;82.20;;;;;;5083456;28;20094;-76
2023/08/31 06:16:03;;;;;;;8.13;1.60;;;14.60;82.20;;;;;;5057526;28;20039;-76
2023/08/31 06:18:29;;;;;;;3.17;1.23;;;14.90;81.80;;;;;;5075445;28;20032;-76
2023/08/31 06:20:54;;;;;;;3.70;1.58;;;15.20;81.30;;;;;;5093720;28;20028;-76
2023/08/31 06:23:20;;;;;;;4.28;1.17;;;15.50;80.70;;;;;;5057573;28;20032;-74
2023/08/31 06:25:46;;;;;;;5.72;1.40;;;15.80;79.90;;;;;;5057590;28;20066;-75
2023/08/31 06:28:12;;;;;;;6.13;1.92;;;16.10;79.00;;;;;;5073427;28;20040;-75
2023/08/31 06:30:38;;;;;;;5.50;1.30;;;16.40;78.20;;;;;;5042143;28;20040;-75
2023/08/31 06:33:04;;;;;;;3.97;1.38;;;16.60;77.40;;;;;;5101460;28;20047;-75
2023/08/31 06:35:31;;;;;;;4.45;1.00;;;16.90;76.80;;;;;;5114732;28;20050;-75
2023/08/31 06:37:57;;;;;;;2.50;0.80;;;17.20;75.90;;;;;;5114260;28;20050;-75
2023/08/31 06:40:24;;;;;;;1.52;0.70;;;17.50;74.60;;;;;;5080364;28;20060;-75
2023/08/31 06:42:49;;;;;;;2.60;1.00;;;17.80;73.70;;;;;;5076980;28;20044;-75
2023/08/31 06:45:15;;;;;;;1.98;0.95;;;18.00;72.60;;;;;;5093875;28;20039;-75
2023/08/31 06:47:41;;;;;;;2.97;1.35;;;18.20;72.00;;;;;;5094125;28;20036;-76
2023/08/31 06:50:07;;;;;;;2.95;1.15;;;18.40;71.40;;;;;;5108493;28;20402;-75
2023/08/31 06:52:33;;;;;;;2.83;1.17;;;18.50;70.20;;;;;;5078233;28;20572;-75
2023/08/31 06:54:59;;;;;;;4.55;1.05;;;18.70;70.00;;;;;;5076982;28;20036;-75
2023/08/31 06:57:26;;;;;;;3.30;1.00;;;18.80;69.70;;;;;;5060456;28;20047;-75
2023/08/31 06:59:52;;;;;;;4.45;0.88;;;18.90;69.20;;;;;;5093531;28;20056;-75
2023/08/31 07:02:19;;;;;;;3.50;1.08;;;18.90;68.40;;;;;;5092872;28;20043;-76
2023/08/31 07:04:45;;;;;;;2.42;0.90;;;18.90;68.30;;;;;;5076895;28;20126;-76
2023/08/31 07:07:13;;;;;;;4.50;1.00;;;19.00;67.80;;;;;;5093166;28;20039;-75
2023/08/31 07:09:43;;;;;;;2.47;0.90;;;19.10;67.20;;;;;;5093457;28;20109;-75
2023/08/31 07:12:09;;;;;;;3.35;0.73;;;19.10;67.20;;;;;;5079911;28;20044;-75
2023/08/31 07:14:35;;;;;;;3.83;0.98;;;19.10;66.70;;;;;;5090751;28;20040;-75
2023/08/31 07:17:01;;;;;;;4.05;0.90;;;19.10;66.60;;;;;;5076431;28;20376;-76
2023/08/31 07:19:27;;;;;;;3.97;0.80;;;19.00;66.50;;;;;;5076227;28;20145;-76
2023/08/31 07:21:54;;;;;;;3.42;0.82;;;18.90;66.80;;;;;;5092542;28;20036;-75
2023/08/31 07:24:21;;;;;;;2.38;0.93;;;18.90;67.20;;;;;;5093209;28;20146;-75
2023/08/31 07:26:47;;;;;;;4.78;0.88;;;18.90;67.50;;;;;;5076675;28;20505;-75
2023/08/31 07:29:12;;;;;;;2.92;1.15;;;19.00;67.70;;;;;;5076734;28;20047;-76
2023/08/31 07:31:38;;;;;;;4.15;0.88;;;19.00;67.50;;;;;;5075492;28;20483;-75
2023/08/31 07:34:04;;;;;;;3.38;0.75;;;19.10;67.80;;;;;;5076372;28;20043;-75
2023/08/31 07:36:30;;;;;;;2.60;1.15;;;19.10;68.00;;;;;;5076140;28;20471;-75
2023/08/31 07:38:56;;;;;;;3.10;0.95;;;19.20;68.00;;;;;;5092137;28;20127;-76
2023/08/31 07:41:22;;;;;;;3.40;1.17;;;19.30;67.90;;;;;;5091412;28;20147;-76
2023/08/31 07:43:49;;;;;;;4.75;0.90;;;19.40;67.40;;;;;;5075559;28;20043;-76
2023/08/31 07:46:15;;;;;;;4.15;1.17;;;19.50;67.40;;;;;;5092748;28;20072;-75
2023/08/31 07:48:42;;;;;;;3.88;0.70;;;19.50;67.20;;;;;;5075967;28;20483;-75
2023/08/31 07:51:08;;;;;;;2.78;0.80;;;19.50;67.30;;;;;;5075139;28;20042;-75
2023/08/31 07:53:34;;;;;;;3.63;0.70;;;19.50;67.40;;;;;;5092541;28;20031;-74
2023/08/31 07:55:59;;;;;;;2.58;0.60;;;19.60;67.50;;;;;;5093243;28;20031;-76
2023/08/31 07:58:26;;;;;;;3.67;0.75;;;19.60;66.80;;;;;;5113132;28;20113;-75
2023/08/31 08:00:56;;;;;;;2.05;0.40;;;19.70;66.40;;;;;;5111203;28;20395;-75
2023/08/31 08:03:22;;;;;;;2.75;0.93;;;19.80;65.60;;;;;;5079738;28;20070;-76
2023/08/31 08:05:48;;;;;;;3.47;0.52;;;19.90;65.50;;;;;;5095969;28;20078;-75
2023/08/31 08:08:14;;;;;;;4.38;0.82;;;20.00;65.20;;;;;;5112637;28;20074;-75
2023/08/31 08:10:40;;;;;;;2.83;0.60;;;20.10;64.50;;;;;;5112650;28;20067;-75
2023/08/31 08:13:06;;;;;;;4.28;0.50;;;20.10;63.80;;;;;;5092784;28;20492;-75
2023/08/31 08:15:32;;;;;;;2.42;0.40;;;20.10;63.40;;;;;;5075680;28;20104;-75
2023/08/31 08:17:58;;;;;;;1.52;0.47;;;20.10;62.90;;;;;;5075328;28;20090;-76
2023/08/31 08:20:24;;;;;;;2.13;0.47;;;20.10;62.90;;;;;;5074396;28;20079;-74
2023/08/31 08:22:52;;;;;;;1.10;0.28;;;20.10;62.90;;;;;;5075568;28;20028;-75
2023/08/31 08:25:21;;;;;;;1.83;0.85;;;20.10;63.30;;;;;;5092319;28;20046;-75
2023/08/31 08:27:47;;;;;;;2.20;0.50;;;20.00;63.50;;;;;;5092233;28;20063;-75
2023/08/31 08:30:14;;;;;;;2.53;0.75;;;20.00;63.70;;;;;;5074256;28;20101;-76
2023/08/31 08:32:39;;;;;;;2.65;0.60;;;19.90;63.60;;;;;;5075135;28;20046;-75
2023/08/31 08:35:05;;;;;;;1.67;0.30;;;19.80;63.70;;;;;;5058804;28;20130;-76
2023/08/31 08:37:34;;;;;;;2.33;0.50;;;19.70;63.90;;;;;;5091849;28;20066;-77
2023/08/31 08:40:01;;;;;;;1.67;0.52;;;19.70;64.10;;;;;;5074054;28;20064;-76
2023/08/31 08:42:29;;;;;;;1.92;0.52;;;19.60;64.60;;;;;;5091756;28;20055;-76
2023/08/31 08:44:56;;;;;;;4.05;0.60;;;19.60;65.80;;;;;;5111853;28;20502;-76
2023/08/31 08:47:22;;;;;;;1.30;0.40;;;19.60;66.00;;;;;;5112231;28;20040;-76
2023/08/31 08:49:49;;;;;;;2.85;0.45;;;19.70;65.50;;;;;;5057676;28;20041;-76
2023/08/31 08:52:15;;;;;;;1.90;0.38;;;19.80;65.10;;;;;;5071237;28;20037;-76
2023/08/31 08:54:41;;;;;;;1.75;0.50;;;19.80;63.90;;;;;;5088469;28;20488;-76
2023/08/31 08:57:07;;;;;;;3.55;0.68;;;20.00;63.50;;;;;;5082323;28;20092;-76
2023/08/31 08:59:33;;;;;;;1.15;0.30;;;20.10;62.60;;;;;;5073884;28;20047;-76
2023/08/31 09:01:59;;;;;;;1.30;0.52;;;20.20;62.30;;;;;;5074862;28;20166;-76
2023/08/31 09:04:25;;;;;;;1.60;0.40;;;20.30;62.70;;;;;;5074761;28;20119;-76
2023/08/31 09:06:51;;;;;;;1.23;0.50;;;20.40;62.40;;;;;;5091604;28;20047;-77
2023/08/31 09:09:17;;;;;;;1.17;0.40;;;20.60;62.00;;;;;;5060665;28;20145;-77
2023/08/31 09:11:43;;;;;;;1.77;0.50;;;20.70;61.20;;;;;;5088227;28;20132;-76
2023/08/31 09:14:19;;;;;;;2.55;0.52;;;20.90;60.80;;;;;;5088393;28;20517;-77
2023/08/31 09:16:47;;;;;;;1.85;0.60;;;21.00;59.60;;;;;;5071254;28;20082;-76
2023/08/31 09:19:21;;;;;;;4.97;1.02;;;21.10;59.90;;;;;;5087073;28;20048;-76
2023/08/31 09:21:48;;;;;;;1.85;0.50;;;21.20;59.40;;;;;;5054483;28;20165;-76
2023/08/31 09:24:14;;;;;;;2.08;0.45;;;21.30;59.40;;;;;;5093701;28;20036;-76
2023/08/31 09:26:47;;;;;;;2.55;0.63;;;21.50;59.00;;;;;;5093172;28;20044;-76
2023/08/31 09:29:13;;;;;;;2.70;0.80;;;21.60;59.30;;;;;;5080589;28;20036;-76
2023/08/31 09:31:45;;;;;;;1.50;0.40;;;21.70;58.50;;;;;;5074528;28;20048;-76
2023/08/31 09:34:11;;;;;;;1.27;0.45;;;21.80;58.40;;;;;;5091361;28;20487;-76
2023/08/31 09:36:38;;;;;;;2.55;0.60;;;22.00;57.20;;;;;;5075156;28;20047;-76
2023/08/31 09:39:05;;;;;;;2.20;0.50;;;22.10;56.50;;;;;;5080087;28;20039;-76
2023/08/31 09:41:30;;;;;;;2.65;0.52;;;22.10;56.10;;;;;;5103479;28;20062;-76
2023/08/31 09:43:56;;;;;;;1.77;0.60;;;22.10;55.90;;;;;;5080958;28;20032;-75
2023/08/31 09:46:23;;;;;;;1.30;0.40;;;22.10;55.30;;;;;;5071342;28;20051;-76
2023/08/31 09:48:49;;;;;;;1.15;0.50;;;22.10;55.40;;;;;;5079402;28;20051;-76
2023/08/31 09:51:17;;;;;;;2.17;0.50;;;22.10;55.70;;;;;;5074640;28;20537;-76
2023/08/31 09:53:48;;;;;;;2.92;0.70;;;22.10;55.10;;;;;;5091152;28;20055;-76
2023/08/31 09:56:20;;;;;;;2.40;0.50;;;22.10;55.20;;;;;;5090966;28;20596;-76
2023/08/31 09:58:46;;;;;;;2.00;0.60;;;22.10;54.80;;;;;;5090147;28;20036;-76
2023/08/31 10:01:12;;;;;;;3.30;0.57;;;22.00;55.10;;;;;;5091084;28;20087;-76
2023/08/31 10:03:38;;;;;;;2.85;0.93;;;21.90;54.70;;;;;;5102513;28;20457;-75
2023/08/31 10:06:05;;;;;;;3.38;0.52;;;21.90;54.40;;;;;;5115074;28;20050;-75
2023/08/31 10:08:32;;;;;;;2.97;0.60;;;21.80;54.90;;;;;;5080253;28;20085;-76
2023/08/31 10:11:03;;;;;;;2.63;0.77;;;21.70;55.20;;;;;;5094787;28;20391;-76
2023/08/31 10:13:35;;;;;;;2.92;0.80;;;21.60;54.80;;;;;;5094543;28;20051;-75
2023/08/31 10:16:03;;;;;;;2.03;0.70;;;21.60;55.60;;;;;;5094778;28;20048;-75
2023/08/31 10:18:30;;;;;;;2.50;0.43;;;21.50;55.70;;;;;;5089829;28;20498;-76
2023/08/31 10:20:56;;;;;;;6.35;1.13;;;21.40;55.50;;;;;;5077102;28;20043;-76
2023/08/31 10:23:22;;;;;;;4.65;0.70;;;21.40;55.50;;;;;;5077478;28;20032;-76
2023/08/31 10:25:47;;;;;;;2.10;0.90;;;21.30;55.80;;;;;;5077476;28;20036;-76
2023/08/31 10:28:18;;;;;;;3.78;1.20;;;21.20;56.10;;;;;;5093799;28;20075;-77
2023/08/31 10:31:06;;;;;;;3.55;1.00;;;21.20;56.40;;;;;;5077563;28;20415;-76
2023/08/31 10:33:44;;;;;;;5.28;1.55;;;21.20;56.90;;;;;;5077576;28;20101;-76
2023/08/31 10:36:18;;;;;;;4.50;0.98;;;21.10;56.90;;;;;;5094280;28;20367;-75
2023/08/31 10:38:56;;;;;;;3.83;0.98;;;21.10;57.60;;;;;;5076553;28;20067;-76
2023/08/31 10:41:23;;;;;;;4.18;0.95;;;21.20;57.80;;;;;;5093927;28;20044;-77
2023/08/31 10:43:50;;;;;;;3.35;0.80;;;21.20;57.70;;;;;;5094136;28;20467;-77
2023/08/31 10:46:34;;;;;;;2.13;0.60;;;21.20;57.60;;;;;;5091275;28;20028;-76
2023/08/31 10:49:03;;;;;;;2.55;0.70;;;21.30;57.50;;;;;;5074157;28;20102;-77
2023/08/31 10:51:32;;;;;;;2.63;0.57;;;21.30;57.60;;;;;;5057552;28;20046;-77
2023/08/31 10:54:18;;;;;;;2.10;0.75;;;21.40;56.70;;;;;;5073808;28;20129;-77
2023/08/31 10:57:08;;;;;;;2.42;0.68;;;21.40;55.90;;;;;;5066568;28;20467;-77
2023/08/31 10:59:46;;;;;;;2.85;0.70;;;21.40;55.70;;;;;;5094241;28;20052;-77
2023/08/31 11:02:34;;;;;;;3.78;0.75;;;21.40;55.60;;;;;;5114532;28;20032;-77
2023/08/31 11:05:05;;;;;;;2.50;0.60;;;21.30;55.70;;;;;;5097383;28;20079;-77
2023/08/31 11:07:31;;;;;;;2.60;0.75;;;21.30;55.80;;;;;;5114278;28;20040;-77
2023/08/31 11:10:09;;;;;;;1.35;0.52;;;21.20;55.80;;;;;;5080057;28;20075;-77
2023/08/31 11:12:34;;;;;;;2.20;0.75;;;21.10;55.90;;;;;;5094054;28;20051;-78
2023/08/31 11:15:00;;;;;;;4.07;1.00;;;21.10;56.40;;;;;;5093271;28;20475;-77
2023/08/31 11:17:27;;;;;;;2.72;0.90;;;21.00;56.30;;;;;;5093292;28;20071;-77
2023/08/31 11:19:52;;;;;;;3.22;0.82;;;21.10;56.50;;;;;;5076630;28;20052;-77
2023/08/31 11:22:18;;;;;;;3.72;1.13;;;21.00;56.40;;;;;;5059876;28;20375;-77
2023/08/31 11:24:44;;;;;;;2.45;0.93;;;21.00;56.20;;;;;;5076644;28;20031;-77
2023/08/31 11:27:10;;;;;;;2.05;1.20;;;20.90;56.40;;;;;;5076337;28;20390;-78
2023/08/31 11:29:44;;;;;;;1.95;0.65;;;20.90;57.20;;;;;;5059852;28;20040;-78
2023/08/31 11:32:10;;;;;;;;;;;20.90;57.90;;;;;;5060899;28;20040;-78
2023/08/31 11:34:46;;;;;;;2.53;0.80;;;20.80;58.60;;;;;;5076022;28;20002;-76
2023/08/31 11:37:20;;;;;;;2.88;0.68;;;20.70;58.80;;;;;;5092970;28;20490;-76
2023/08/31 11:39:52;;;;;;;;;;;20.70;59.20;;;;;;5088201;28;20048;-75
2023/08/31 11:42:20;;;;;;;2.25;0.65;;;20.70;59.20;;;;;;5092355;28;20386;-75
2023/08/31 11:44:47;;;;;;;2.05;0.50;;;20.60;59.30;;;;;;5074050;28;20384;-76
2023/08/31 11:47:14;;;;;;;2.55;0.70;;;20.50;59.20;;;;;;5090090;28;20245;-75
2023/08/31 11:49:41;;;;;;;2.35;0.60;;;20.50;59.30;;;;;;5063436;28;20048;-75
2023/08/31 11:52:10;;;;;;;3.38;0.90;;;20.50;59.70;;;;;;5099343;28;20544;-75
2023/08/31 11:54:41;;;;;;;2.97;0.85;;;20.50;60.20;;;;;;5085210;28;20032;-75
2023/08/31 11:57:08;;;;;;;3.42;1.17;;;20.50;61.00;;;;;;5093111;28;20044;-73
2023/08/31 11:59:36;;;;;;;3.00;0.82;;;20.50;61.40;;;;;;5081047;28;20080;-73
2023/08/31 12:02:05;;;;;;;3.05;0.80;;;20.60;61.60;;;;;;5086586;28;20512;-73
2023/08/31 12:04:31;;;;;;;2.53;0.80;;;20.60;61.20;;;;;;5099224;28;20039;-73
2023/08/31 12:07:04;;;;;;;1.95;0.70;;;20.60;60.90;;;;;;5112314;28;20403;-73
2023/08/31 12:09:30;;;;;;;2.50;1.10;;;20.70;60.40;;;;;;5101306;28;20043;-73
2023/08/31 12:11:56;;;;;;;1.77;0.80;;;20.70;60.40;;;;;;5092280;28;20035;-72
2023/08/31 12:14:26;;;;;;;2.20;0.77;;;20.70;60.10;;;;;;5091919;28;20251;-72
2023/08/31 12:17:00;;;;;;;3.13;0.80;;;20.70;60.20;;;;;;5092403;28;20044;-73
2023/08/31 12:19:30;;;;;;;3.88;1.27;;;20.70;60.80;;;;;;5082321;28;20043;-73
2023/08/31 12:21:56;;;;;;;2.15;0.50;;;20.70;61.50;;;;;;5105892;28;20036;-72
2023/08/31 12:24:23;;;;;;;5.07;1.08;;;20.60;61.40;;;;;;5087746;28;20173;-72
2023/08/31 12:26:50;;;;;;;4.82;1.00;;;20.70;61.10;;;;;;5083044;28;20044;-72
2023/08/31 12:29:16;;;;;;;3.60;0.82;;;20.60;60.30;;;;;;5067373;28;20074;-71
2023/08/31 12:31:43;;;;;;;2.63;1.10;;;20.60;60.20;;;;;;5085684;28;20055;-71
2023/08/31 12:34:09;;;;;;;13.95;1.50;;;20.60;59.80;;;;;;5084984;28;20044;-71
2023/08/31 12:36:41;;;;;;;4.97;1.42;;;20.50;59.60;;;;;;5084147;28;20048;-71
2023/08/31 12:39:09;;;;;;;3.40;1.33;;;20.40;59.70;;;;;;5083561;28;20443;-71
2023/08/31 12:41:39;;;;;;;6.47;1.65;;;20.20;59.80;;;;;;5085440;28;20066;-71
2023/08/31 12:44:08;;;;;;;4.45;1.20;;;20.10;60.20;;;;;;5068047;28;20046;-71
2023/08/31 12:46:34;;;;;;;4.95;1.00;;;20.00;60.60;;;;;;5100956;28;20437;-71
2023/08/31 12:49:02;;;;;;;3.45;1.02;;;19.80;60.70;;;;;;5062919;28;20039;-72